• Join FlightAware (Why Join?)
  • Login
  • US Flag 
05:52AM EDT


 

Airport Tracker/Info


-or-


 

Live Flight TrackerFlight Track Log ✈ EGF3681 ✈ 21-Jun-2013 ✈ KORD - KDAY

Flight Track Log - Related Links

Times and Time Zones

All times are in EDT time to prevent confusion due to time zone crossing. See the EGF3681 flight status page for this flight to view local times or setup timezone preferences in your user account.

Time Position Orientation Groundspeed Altitude Reporting Facility
EDT Latitude Longitude Course Direction KTS MPH feet Rate Location/Type
12:49AM 41.9833 -87.9167 95° East 231 266 4,100  Level Chicago TRACON
12:51AM 42.0367 -87.8575 39° Northeast 253 291 6,600 1,860 Climbing Chicago Center
12:52AM 42.0253 -87.7542 98° East 282 325 8,100 1,680 Climbing Chicago Center
12:53AM 42.0103 -87.6436 100° East 298 343 10,000 1,380 Climbing Chicago Center
12:54AM 41.9983 -87.5247 98° East 317 365 11,000 960 Climbing Chicago Center
12:55AM 41.9350 -87.1559 95° East  Level FlightAware Approximate
12:55AM 41.9839 -87.3928 98° East 348 400 12,000  Level Chicago Center
12:56AM 41.9969 -87.2531 83° East 373 429 13,100 1,260 Climbing Chicago Center
12:57AM 42.0269 -87.1197 73° East 376 433 14,600 1,980 Climbing Chicago Center
12:58AM 42.0522 -86.9619 78° East 361 415 17,100 2,160 Climbing Chicago Center
12:59AM 41.9931 -86.8578 127° Southeast 347 399 19,000 1,440 Climbing Chicago Center
01:00AM 41.9317 -86.7542 129° Southeast 353 406 20,100 960 Climbing Chicago Center
01:01AM 41.8744 -86.6564 128° Southeast 371 427 21,000 900 Climbing Chicago Center
01:02AM 41.8067 -86.5439 129° Southeast 384 442 22,000 960 Climbing Chicago Center
01:03AM 41.7386 -86.4300 129° Southeast 392 451 23,000 480 Climbing Chicago Center
01:04AM 41.6669 -86.3111 129° Southeast 408 470 23,000  Level Chicago Center
01:05AM 41.5917 -86.1869 129° Southeast 427 491 23,000  Level Chicago Center
01:06AM 41.5139 -86.0606 129° Southeast 443 510 23,000  Level Chicago Center
01:07AM 41.4203 -85.9056 129° Southeast 450 518 23,000  Level Chicago Center
01:08AM 41.3411 -85.7769 129° Southeast 454 522 23,000  Level Chicago Center
01:09AM 41.2475 -85.6708 140° Southeast 446 513 23,000 -300 Level Chicago Center
01:10AM 41.1525 -85.5675 141° Southeast 445 512 22,400 -840 Descending Chicago Center
01:11AM 41.0581 -85.4631 140° Southeast 446 513 21,400 -960 Descending Chicago Center
01:12AM 40.9656 -85.3631 141° Southeast 437 503 20,500 -960 Descending Chicago Center
01:13AM 40.8783 -85.2628 139° Southeast 423 487 19,500 -1,020 Descending Chicago Center
01:14AM 40.7931 -85.1697 140° Southeast 408 470 18,500 -1,020 Descending Chicago Center
01:15AM 40.7081 -85.0786 141° Southeast 399 459 17,500 -1,800 Descending Chicago Center
01:16AM 40.6272 -84.9917 141° Southeast 398 458 14,900 -2,820 Descending Chicago Center
01:16AM 40.5564 -84.9147 140° Southeast 407 468 12,700 -2,520 Descending Indianapolis Center
01:17AM 40.5047 -84.8586 140° Southeast 402 463 11,900 -1,200 Descending Indianapolis Center
01:17AM 40.4756 -84.8283 142° Southeast 397 457 11,500 -660 Descending Indianapolis Center
01:18AM 40.3922 -84.7367 140° Southeast 390 449 10,900 -780 Descending Indianapolis Center
01:19AM 40.3181 -84.6342 133° Southeast 386 444 10,000 -540 Descending Indianapolis Center
01:20AM 40.2475 -84.5314 132° Southeast 380 437 9,900  Descending Indianapolis Center
01:21AM 40.1767 -84.4317 133° Southeast 373 429 10,000  Climbing Indianapolis Center
01:22AM 40.1069 -84.3350 133° Southeast 367 422 9,900 -840 Descending Indianapolis Center
01:23AM 40.0519 -84.2597 134° Southeast 287 330 8,400 -2,220 Descending Indianapolis Center
01:24AM 39.9983 -84.1842 133° Southeast 282 325 5,500 -2,040 Descending Indianapolis Center
01:25AM 39.9633 -84.1236 127° Southeast 225 259 4,400 -1,620 Descending Indianapolis Center
01:26AM 39.9422 -84.1575 231° Southwest 165 190 2,300 -1,500 Descending Indianapolis Center
01:27AM 39.9228 -84.1942 235° Southwest 134 154 1,400 -900 Descending Indianapolis Center